Grass Range, MT

5:22 PM MDT on April 25, 2015 (GMT -0600)
MesoWest | | Change Station
CLOSE
Current Station
Personal Weather Station
Location: Lewistown, MT
Elevation: 4624 ft
Nearby Weather Stations

Elev 4624 ft 47.06 °N, 109.18 °W | Updated 33 minutes ago

Mostly Cloudy
Mostly Cloudy
46 °F
Feels Like 41 °F
N
11
Wind Variable Wind from WNW
Gusts 14.0 mph

Today
High -- | Low -- °F
--% Chance of Precip.
Yesterday
High -- | Low -- °F
Precip. -- in
6:10 AM 8:17 PM
Waxing Crescent, 50% visible
Pressure 29.84 in
Visibility 10.0 miles
Clouds Mostly Cloudy 4800 ft
Windchill 41 °F
Dew Point 26 °F
Humidity 46%
Rainfall in
Snow Depth Not available.
UV 2 out of 12
Pollen 4.40 out of 12
Air Quality Not available.
Flu Activity Local Activity
METAR KLWT 252254Z AUTO 27013KT 10SM BKN048 10/M01 A2982 RMK AO2 SLP104 T01001011

More Conditions Fewer Conditions

Pressure 29.84 in
Visibility 10.0 miles
Clouds Mostly Cloudy 4800 ft
Windchill 41 °F
Dew Point 26 °F
Humidity 46%
Rainfall in
Snow Depth Not available.
UV 2 out of 12
Pollen 4.40 out of 12
Air Quality Not available.
Flu Activity Local Activity
METAR KLWT 252254Z AUTO 27013KT 10SM BKN048 10/M01 A2982 RMK AO2 SLP104 T01001011

More Conditions Fewer Conditions

10-Day Weather Forecast

Almanac

Astronomy

Apr. 25, 2015 Rise Set
Actual Time
Civil Twilight
Nautical Twilight
Astronomical Twilight
Moon
Length of Visible Light
Length of Day
Tomorrow will be .
, % of the Moon is Illuminated

Today's Extremes

State Highs State Lows

Community

WunderPhotos

Upload Photos

1,816,845 photos uploaded!

WunderBlogs® & News

Nearby

Air Quality

  Air Quality AQ Index Pollutant
Not available.

Snow Depth

Station Depth Elevation

Earthquake Activity

City Distance Mag. Time & Date
Minimum magnitude displayed is 2.5.

Coastal Water Temperatures

Place Temperature

Stations

Nearby Weather Stations

Station Location Temp. Windchill Dew Point Humidity Wind Precip. Elev Updated Type